Terminal Aerodrome Forecast
Issued by NWS

Home | Current Version | Previous Version | Text Only | Print | Product List | Glossary On
Versions: 1 2 3 4 5 6 7 8 9 10 11 12 13 14 15 16 17 18 19 20 21 22
000
FTUS43 KDVN 211100
TAFCID
TAF
KCID 211125Z 2112/2212 28011KT P6SM SKC
     FM211600 32016G24KT P6SM SCT025 BKN035
      TEMPO 2116/2119 BKN025
     FM212300 33008KT P6SM SKC
     FM220600 34003KT P6SM SKC=

USA.gov is the U.S. government's official web portal to all federal, state and local government web resources and services.